Time;durP1;ratioP1;P1;durP2;ratioP2;P2;SDS_P1;SDS_P2;PMS_P1;PMS_P2;Temp;Humidity;BMP_temperature;BMP_pressure;BME280_temperature;BME280_humidity;BME280_pressure;Samples;Min_cycle;Max_cycle;Signal;HPM_P1;HPM_P2
2022/06/13 00:00:14;;;;;;;1651.37;999.90;;;12.50;82.70;;;;;;4986683;28;20066;-66
2022/06/13 00:02:40;;;;;;;1491.70;999.90;;;12.50;83.30;;;;;;4982209;28;20380;-66
2022/06/13 00:05:07;;;;;;;1571.23;999.90;;;12.50;83.80;;;;;;4970007;28;20959;-66
2022/06/13 00:07:33;;;;;;;1594.47;999.90;;;12.50;83.60;;;;;;4984681;28;20046;-66
2022/06/13 00:09:59;;;;;;;1436.40;999.90;;;12.60;83.90;;;;;;4956576;28;20290;-66
2022/06/13 00:12:26;;;;;;;1679.23;999.90;;;12.60;84.30;;;;;;4972600;28;20294;-66
2022/06/13 00:14:52;;;;;;;1441.47;999.90;;;12.70;85.20;;;;;;4973045;28;20311;-66
2022/06/13 00:17:18;;;;;;;1596.03;999.90;;;12.70;84.40;;;;;;4990541;28;20308;-66
2022/06/13 00:19:44;;;;;;;1500.37;999.90;;;12.70;84.30;;;;;;4956616;28;20106;-66
2022/06/13 00:22:09;;;;;;;1498.67;999.90;;;12.80;84.60;;;;;;4972296;28;20074;-66
2022/06/13 00:24:36;;;;;;;1472.83;999.90;;;12.80;84.60;;;;;;4963465;28;20388;-66
2022/06/13 00:27:03;;;;;;;1540.33;999.90;;;12.80;85.00;;;;;;4991133;28;20057;-66
2022/06/13 00:29:28;;;;;;;1510.03;999.90;;;12.80;85.10;;;;;;4979244;28;20310;-66
2022/06/13 00:31:54;;;;;;;1456.63;999.90;;;12.80;85.10;;;;;;4969530;28;20294;-66
2022/06/13 00:34:20;;;;;;;1456.63;999.90;;;12.80;84.80;;;;;;4970613;28;20050;-66
2022/06/13 00:36:46;;;;;;;1503.07;999.90;;;12.80;85.30;;;;;;4995131;28;20049;-66
2022/06/13 00:39:11;;;;;;;1673.63;999.90;;;12.80;85.60;;;;;;4975948;28;20056;-66
2022/06/13 00:41:40;;;;;;;1566.00;999.90;;;12.80;85.30;;;;;;4987172;28;20724;-66
2022/06/13 00:44:24;;;;;;;1443.47;985.23;;;12.80;85.20;;;;;;4986592;28;20054;-66
2022/06/13 00:46:51;;;;;;;1394.10;999.90;;;12.80;84.90;;;;;;4967403;28;20408;-66
2022/06/13 00:49:39;;;;;;;1519.03;999.90;;;12.70;85.00;;;;;;4986947;28;20329;-66
2022/06/13 00:52:26;;;;;;;1419.80;999.90;;;12.70;85.00;;;;;;4975826;28;20304;-66
2022/06/13 00:54:53;;;;;;;1401.03;999.90;;;12.60;85.00;;;;;;4972679;28;20305;-66
2022/06/13 00:57:22;;;;;;;1210.43;980.87;;;12.60;84.80;;;;;;4974784;28;20360;-66
2022/06/13 00:59:50;;;;;;;1341.63;999.90;;;12.60;84.20;;;;;;4983945;28;20317;-66
2022/06/13 01:02:16;;;;;;;1411.53;999.90;;;12.50;84.10;;;;;;4973916;28;20306;-66
2022/06/13 01:04:42;;;;;;;1453.47;999.90;;;12.50;84.10;;;;;;4986828;28;20359;-66
2022/06/13 01:07:10;;;;;;;1432.47;999.90;;;12.60;84.00;;;;;;4966152;28;20165;-66
2022/06/13 01:12:23;;;;;;;1256.33;999.90;;;12.60;83.80;;;;;;4986971;28;20785;-66
2022/06/13 01:14:57;;;;;;;1311.17;999.90;;;12.60;83.80;;;;;;4980357;28;20297;-66
2022/06/13 01:17:43;;;;;;;1277.78;997.92;;;12.70;83.80;;;;;;4987019;28;20295;-66
2022/06/13 01:20:28;;;;;;;1338.83;999.90;;;12.70;83.50;;;;;;4984776;28;20117;-66
2022/06/13 01:23:31;;;;;;;1429.20;994.50;;;12.70;83.60;;;;;;4968329;28;20293;-66
2022/06/13 01:26:25;;;;;;;1354.97;999.90;;;12.70;83.30;;;;;;4976309;28;20037;-66
2022/06/13 01:29:06;;;;;;;1290.50;999.90;;;12.60;83.30;;;;;;4983309;28;20320;-66
2022/06/13 01:31:46;;;;;;;1266.53;989.23;;;12.60;83.20;;;;;;4985789;28;20324;-66
2022/06/13 01:34:29;;;;;;;1349.23;999.90;;;12.60;82.90;;;;;;4986062;28;21247;-66
2022/06/13 01:37:33;;;;;;;1306.50;985.50;;;12.70;82.80;;;;;;4968326;28;20882;-66
2022/06/13 01:40:16;;;;;;;1330.47;999.90;;;12.60;82.20;;;;;;4949184;28;21008;-66
2022/06/13 01:42:42;;;;;;;1230.60;997.67;;;12.60;81.90;;;;;;4982556;28;20305;-66
2022/06/13 01:45:34;;;;;;;1372.00;999.90;;;12.60;81.60;;;;;;4974690;28;20298;-66
2022/06/13 01:48:33;;;;;;;1263.85;999.90;;;12.70;81.20;;;;;;4984350;28;20455;-66
2022/06/13 01:51:17;;;;;;;1282.47;999.90;;;12.70;80.70;;;;;;5002230;28;20043;-66
2022/06/13 01:53:57;;;;;;;1263.37;999.90;;;12.70;80.20;;;;;;4983488;28;20307;-66
2022/06/13 01:56:34;;;;;;;1196.63;999.90;;;12.70;79.80;;;;;;4985768;28;20293;-66
2022/06/13 01:59:11;;;;;;;1264.20;999.90;;;12.70;79.10;;;;;;4982956;28;20337;-66
2022/06/13 02:01:42;;;;;;;1341.57;999.90;;;12.70;78.40;;;;;;4980877;28;20316;-66
2022/06/13 02:04:44;;;;;;;1316.00;999.90;;;12.70;77.50;;;;;;4977395;28;20364;-66
2022/06/13 02:07:42;;;;;;;1257.90;999.90;;;12.70;77.30;;;;;;4945893;28;20302;-66
2022/06/13 02:10:18;;;;;;;1208.03;993.37;;;12.70;77.00;;;;;;4974444;28;20340;-66
2022/06/13 02:12:50;;;;;;;1302.53;997.17;;;12.70;77.00;;;;;;4967990;28;20397;-66
2022/06/13 02:15:24;;;;;;;1319.47;999.90;;;12.70;76.40;;;;;;4969826;28;20330;-66
2022/06/13 02:17:56;;;;;;;1248.23;999.90;;;12.70;76.10;;;;;;4969953;28;20303;-66
2022/06/13 02:20:27;;;;;;;1270.17;999.70;;;12.70;75.90;;;;;;4966837;28;20297;-66
2022/06/13 02:23:06;;;;;;;1301.20;999.90;;;12.70;75.40;;;;;;4983077;28;20289;-66
2022/06/13 02:25:43;;;;;;;1341.60;999.90;;;12.70;75.10;;;;;;4969028;28;20816;-66
2022/06/13 02:28:23;;;;;;;1310.47;999.90;;;12.70;74.90;;;;;;4982772;28;20305;-66
2022/06/13 02:31:07;;;;;;;1354.03;999.90;;;12.70;75.10;;;;;;4984145;28;20297;-66
2022/06/13 02:34:05;;;;;;;1337.32;999.90;;;12.70;74.80;;;;;;4976192;28;20290;-66
2022/06/13 02:36:45;;;;;;;1341.63;999.90;;;12.70;74.40;;;;;;4981395;28;20474;-66
2022/06/13 02:39:21;;;;;;;1363.70;999.90;;;12.70;74.40;;;;;;4983361;28;20301;-66
2022/06/13 02:41:54;;;;;;;1392.83;999.90;;;12.70;74.40;;;;;;4982829;28;20312;-66
2022/06/13 02:44:27;;;;;;;1498.30;999.90;;;12.70;74.50;;;;;;4975006;28;20391;-66
2022/06/13 02:47:34;;;;;;;1340.17;999.90;;;12.70;74.60;;;;;;4962077;28;20312;-66
2022/06/13 02:50:10;;;;;;;1378.43;999.90;;;12.80;74.60;;;;;;4966016;28;20319;-66
2022/06/13 02:52:42;;;;;;;1624.80;999.90;;;12.80;74.60;;;;;;4971923;28;20310;-66
2022/06/13 02:55:11;;;;;;;1342.50;999.90;;;12.80;74.10;;;;;;4982651;28;20305;-66
2022/06/13 02:57:58;;;;;;;1254.77;994.77;;;12.90;73.60;;;;;;4986424;28;20337;-66
2022/06/13 03:00:29;;;;;;;1384.33;999.90;;;12.90;73.50;;;;;;4998063;28;20305;-66
2022/06/13 03:03:14;;;;;;;1257.17;991.13;;;13.00;72.90;;;;;;4981348;28;20309;-66
2022/06/13 03:05:46;;;;;;;1392.57;999.88;;;13.00;72.60;;;;;;4968928;28;20305;-66
2022/06/13 03:08:30;;;;;;;1365.67;999.90;;;13.00;72.80;;;;;;4987892;28;20050;-66
2022/06/13 03:11:20;;;;;;;1325.77;999.90;;;13.00;72.90;;;;;;4984903;28;20301;-66
2022/06/13 03:14:09;;;;;;;1289.00;999.03;;;13.00;73.00;;;;;;4977303;28;20301;-66
2022/06/13 03:16:50;;;;;;;1324.63;999.90;;;13.00;73.00;;;;;;4984674;28;20425;-66
2022/06/13 03:19:35;;;;;;;1335.47;999.90;;;13.00;73.00;;;;;;4978946;28;20298;-66
2022/06/13 03:22:08;;;;;;;1295.70;999.90;;;12.90;73.10;;;;;;4977178;28;20302;-66
2022/06/13 03:24:36;;;;;;;1286.87;996.43;;;12.90;73.10;;;;;;4977975;28;20511;-66
2022/06/13 03:27:10;;;;;;;1269.07;999.90;;;12.90;73.40;;;;;;4976737;28;20337;-66
2022/06/13 03:29:51;;;;;;;1278.63;999.90;;;12.80;73.50;;;;;;4995914;28;20647;-66
2022/06/13 03:32:22;;;;;;;1329.93;999.90;;;12.80;73.50;;;;;;4997826;28;20285;-66
2022/06/13 03:34:54;;;;;;;1218.07;998.53;;;12.80;73.60;;;;;;4974127;28;20305;-66
2022/06/13 03:37:25;;;;;;;1282.97;999.90;;;12.80;73.70;;;;;;4981863;28;20313;-66
2022/06/13 03:40:21;;;;;;;1292.37;999.90;;;12.80;73.90;;;;;;4967101;28;20314;-66
2022/06/13 03:42:56;;;;;;;1242.18;999.90;;;12.90;74.00;;;;;;4975524;28;20296;-66
2022/06/13 03:46:03;;;;;;;1337.68;999.90;;;12.90;74.10;;;;;;4980006;28;20042;-66
2022/06/13 03:48:39;;;;;;;1290.17;999.90;;;12.90;74.10;;;;;;4982551;28;20043;-66
2022/06/13 03:51:16;;;;;;;1206.20;999.90;;;12.90;74.30;;;;;;4972058;28;20310;-66
2022/06/13 03:53:51;;;;;;;1219.07;999.90;;;12.90;74.40;;;;;;4977162;28;20352;-66
2022/06/13 03:56:20;;;;;;;1206.90;999.90;;;12.90;74.50;;;;;;4968179;28;20302;-66
2022/06/13 03:58:51;;;;;;;1279.90;999.90;;;12.80;74.40;;;;;;4982472;28;20132;-66
2022/06/13 04:01:26;;;;;;;1272.73;999.90;;;12.80;74.60;;;;;;4984740;28;20340;-66
2022/06/13 04:03:54;;;;;;;1207.63;999.90;;;12.80;74.90;;;;;;4984668;28;20590;-66
2022/06/13 04:06:32;;;;;;;1299.43;999.90;;;12.70;74.90;;;;;;4980314;28;20069;-66
2022/06/13 04:09:00;;;;;;;1208.87;999.90;;;12.70;75.20;;;;;;4975399;28;20342;-66
2022/06/13 04:11:51;;;;;;;1249.67;999.90;;;12.70;75.10;;;;;;5001396;28;20304;-66
2022/06/13 04:14:20;;;;;;;1297.20;999.90;;;12.70;75.20;;;;;;4980811;28;20305;-66
2022/06/13 04:16:58;;;;;;;1292.77;999.90;;;12.80;75.40;;;;;;4980339;28;20365;-66
2022/06/13 04:20:06;;;;;;;1263.47;999.90;;;12.90;75.40;;;;;;4999302;28;20301;-66
2022/06/13 04:23:09;;;;;;;1328.87;999.90;;;13.10;75.30;;;;;;4981734;28;20827;-66
2022/06/13 04:25:38;;;;;;;1272.50;999.90;;;13.20;75.20;;;;;;4979206;28;20313;-66
2022/06/13 04:28:10;;;;;;;1245.93;999.90;;;13.10;75.00;;;;;;4979154;28;20310;-66
2022/06/13 04:30:39;;;;;;;1296.57;999.90;;;13.10;74.90;;;;;;4965391;28;20305;-66
2022/06/13 04:33:26;;;;;;;1219.73;999.90;;;13.10;74.90;;;;;;4974633;28;20325;-66
2022/06/13 04:35:53;;;;;;;1221.93;999.90;;;13.10;75.30;;;;;;4984326;28;20304;-66
2022/06/13 04:38:21;;;;;;;1282.90;999.90;;;13.00;75.30;;;;;;4962676;28;20663;-66
2022/06/13 04:40:56;;;;;;;1292.53;999.90;;;13.00;75.30;;;;;;4979549;28;20297;-66
2022/06/13 04:43:27;;;;;;;1313.83;999.90;;;13.00;75.60;;;;;;4970448;28;20294;-66
2022/06/13 04:46:01;;;;;;;1335.20;999.90;;;13.00;75.40;;;;;;4974366;28;20294;-66
2022/06/13 04:48:27;;;;;;;1267.25;999.90;;;13.10;75.50;;;;;;4995942;28;20317;-66
2022/06/13 04:51:19;;;;;;;1389.43;999.90;;;13.10;75.50;;;;;;4968072;28;20042;-66
2022/06/13 04:53:52;;;;;;;1341.00;999.90;;;13.50;76.40;;;;;;4959355;28;20643;-66
2022/06/13 04:56:20;;;;;;;1387.00;999.90;;;14.50;74.90;;;;;;4983276;28;20317;-66
2022/06/13 04:58:47;;;;;;;1393.30;999.90;;;15.90;71.50;;;;;;4978892;28;20655;-66
2022/06/13 05:01:24;;;;;;;1459.30;999.90;;;16.90;67.20;;;;;;4963286;28;20302;-66
2022/06/13 05:03:50;;;;;;;1517.03;999.90;;;17.70;65.40;;;;;;4978965;28;20360;-66
2022/06/13 05:06:32;;;;;;;1499.63;999.90;;;18.40;63.30;;;;;;4981376;28;20400;-67
2022/06/13 05:09:02;;;;;;;1477.40;999.90;;;18.90;61.00;;;;;;4976733;28;20313;-67
2022/06/13 05:11:36;;;;;;;1485.00;999.90;;;19.20;59.20;;;;;;4980595;28;20298;-67
2022/06/13 05:14:12;;;;;;;1514.90;999.90;;;19.50;58.80;;;;;;4985576;28;20642;-67
2022/06/13 05:17:05;;;;;;;1450.60;999.90;;;20.00;58.70;;;;;;4968126;28;20043;-67
2022/06/13 05:19:59;;;;;;;1578.93;999.90;;;20.60;56.50;;;;;;4985837;28;20296;-67
2022/06/13 05:22:44;;;;;;;1426.57;999.90;;;20.80;54.50;;;;;;4984282;28;20328;-67
2022/06/13 05:25:31;;;;;;;1497.95;999.90;;;21.10;55.30;;;;;;4976308;28;20337;-67
2022/06/13 05:27:57;;;;;;;1357.83;999.90;;;21.10;53.10;;;;;;4999189;28;20074;-67
2022/06/13 05:30:23;;;;;;;1367.80;999.90;;;21.00;53.60;;;;;;4968035;28;20333;-67
2022/06/13 05:32:49;;;;;;;1341.23;999.90;;;20.50;54.20;;;;;;4985238;28;20117;-67
2022/06/13 05:35:28;;;;;;;1554.17;999.90;;;19.50;55.50;;;;;;4969128;28;20432;-67
2022/06/13 05:37:56;;;;;;;1416.37;999.90;;;18.80;57.90;;;;;;4967065;28;20050;-67
2022/06/13 05:40:23;;;;;;;1489.47;999.90;;;18.30;59.90;;;;;;4952122;28;20294;-67
2022/06/13 05:42:49;;;;;;;1519.17;999.90;;;17.60;62.00;;;;;;4953190;28;20297;-67
2022/06/13 05:45:18;;;;;;;1488.00;999.90;;;16.90;64.60;;;;;;4984258;28;20326;-67
2022/06/13 05:47:46;;;;;;;1460.67;999.90;;;16.30;66.70;;;;;;4985028;28;20301;-67
2022/06/13 05:50:24;;;;;;;1469.43;999.90;;;15.80;68.50;;;;;;4984830;28;20302;-66
2022/06/13 05:52:51;;;;;;;1365.87;999.90;;;15.20;69.90;;;;;;4985870;28;20697;-66
2022/06/13 05:55:17;;;;;;;1453.70;999.90;;;14.90;70.90;;;;;;4985692;28;20309;-66
2022/06/13 05:57:43;;;;;;;1439.83;999.90;;;14.60;72.20;;;;;;4985497;28;20297;-66
2022/06/13 06:00:19;;;;;;;1422.37;999.90;;;14.40;72.40;;;;;;4985535;28;20332;-66
2022/06/13 06:02:44;;;;;;;1454.33;999.90;;;14.10;72.90;;;;;;4985843;28;20050;-66
2022/06/13 06:05:10;;;;;;;1384.50;999.90;;;14.00;73.50;;;;;;4968206;28;20364;-66
2022/06/13 06:07:37;;;;;;;1419.73;999.90;;;13.90;73.70;;;;;;4984116;28;20286;-66
2022/06/13 06:10:04;;;;;;;1339.83;999.90;;;14.00;73.70;;;;;;4984349;28;20030;-66
2022/06/13 06:12:29;;;;;;;1451.57;999.90;;;14.50;74.00;;;;;;4970152;28;20291;-66
2022/06/13 06:14:55;;;;;;;1376.43;999.90;;;15.70;72.80;;;;;;4985261;28;20297;-67
2022/06/13 06:17:21;;;;;;;1508.47;999.90;;;16.90;69.70;;;;;;4986109;28;20069;-67
2022/06/13 06:19:46;;;;;;;1375.67;999.90;;;18.00;66.70;;;;;;4965408;28;20098;-67
2022/06/13 06:22:13;;;;;;;1416.57;999.90;;;18.40;64.10;;;;;;4968987;28;20043;-67
2022/06/13 06:24:39;;;;;;;1467.33;999.90;;;18.70;62.80;;;;;;4988430;28;20125;-67
2022/06/13 06:27:06;;;;;;;1463.60;999.90;;;19.00;62.60;;;;;;4978692;28;20363;-67
2022/06/13 06:29:31;;;;;;;1440.53;999.90;;;19.30;62.30;;;;;;4983960;28;20301;-67
2022/06/13 06:31:57;;;;;;;1327.47;999.90;;;19.10;61.70;;;;;;4988163;28;20332;-67
2022/06/13 06:34:23;;;;;;;1329.97;999.90;;;18.50;62.20;;;;;;4987831;28;20419;-67
2022/06/13 06:36:48;;;;;;;1345.30;999.90;;;17.80;63.90;;;;;;4988267;28;20049;-67
2022/06/13 06:39:14;;;;;;;1288.23;999.90;;;17.70;65.00;;;;;;5005144;28;20081;-67
2022/06/13 06:41:40;;;;;;;1360.33;999.90;;;17.60;64.20;;;;;;4973456;28;20101;-66
2022/06/13 06:44:05;;;;;;;1482.17;999.90;;;17.20;64.20;;;;;;4972959;28;20042;-67
2022/06/13 06:46:31;;;;;;;1201.73;999.90;;;16.40;64.80;;;;;;4972592;28;20097;-66
2022/06/13 06:48:57;;;;;;;1243.30;999.90;;;16.40;66.40;;;;;;4988366;28;20046;-67
2022/06/13 06:51:24;;;;;;;1246.33;999.90;;;16.90;65.90;;;;;;4988542;28;20686;-67
2022/06/13 07:02:02;;;;;;;1195.83;999.90;;;17.10;63.10;;;;;;4982957;28;20850;-67
2022/06/13 07:04:28;;;;;;;1336.17;999.90;;;17.10;61.70;;;;;;4986549;28;20312;-66
2022/06/13 07:06:54;;;;;;;1177.67;999.90;;;17.10;61.80;;;;;;4968134;28;20125;-67
2022/06/13 07:09:21;;;;;;;1240.17;999.90;;;16.90;62.70;;;;;;4983094;28;20558;-67
2022/06/13 07:11:54;;;;;;;1226.13;999.90;;;16.90;63.90;;;;;;4949348;28;20301;-67
2022/06/13 07:14:28;;;;;;;1176.40;999.90;;;17.00;63.70;;;;;;4986956;28;20046;-67
2022/06/13 07:16:55;;;;;;;1190.60;999.90;;;16.90;62.80;;;;;;5001655;28;20347;-67
2022/06/13 07:19:21;;;;;;;1168.07;999.90;;;16.80;62.90;;;;;;4986325;28;20046;-67
2022/06/13 07:21:47;;;;;;;1230.63;999.90;;;16.70;63.20;;;;;;4971125;28;20336;-67
2022/06/13 07:24:13;;;;;;;1165.10;999.90;;;16.80;63.20;;;;;;4964565;28;20306;-67
2022/06/13 07:26:39;;;;;;;1284.33;999.90;;;16.80;63.40;;;;;;4977631;28;20043;-67
2022/06/13 07:29:05;;;;;;;1176.03;999.90;;;16.70;62.50;;;;;;4999594;28;20142;-67
2022/06/13 07:31:38;;;;;;;1233.67;999.90;;;16.60;63.00;;;;;;4986242;28;20293;-67
2022/06/13 07:34:05;;;;;;;1250.13;999.90;;;16.40;63.00;;;;;;4985362;28;20320;-67
2022/06/13 07:36:31;;;;;;;1210.27;999.90;;;16.10;63.40;;;;;;4980254;28;20856;-67
2022/06/13 07:38:56;;;;;;;1154.47;999.90;;;16.10;64.50;;;;;;4982851;28;20313;-67
2022/06/13 07:41:24;;;;;;;1229.00;999.90;;;16.10;64.50;;;;;;4984749;28;20086;-67
2022/06/13 07:43:52;;;;;;;1149.10;999.90;;;16.30;63.30;;;;;;4984049;28;20527;-67
2022/06/13 07:46:23;;;;;;;1175.13;999.90;;;16.50;62.60;;;;;;4956184;28;20861;-66
2022/06/13 07:48:49;;;;;;;1170.47;999.90;;;16.50;62.40;;;;;;4985941;28;20340;-67
2022/06/13 07:51:15;;;;;;;1151.07;999.90;;;16.50;62.50;;;;;;4984867;28;20341;-67
2022/06/13 07:53:41;;;;;;;1186.47;999.90;;;16.50;60.60;;;;;;4983455;28;20725;-67
2022/06/13 07:56:07;;;;;;;1177.30;999.90;;;16.40;60.20;;;;;;4986734;28;20417;-67
2022/06/13 07:58:37;;;;;;;1177.87;999.90;;;16.40;60.50;;;;;;4960102;28;20061;-67
2022/06/13 08:01:04;;;;;;;1149.20;999.90;;;16.40;60.30;;;;;;4971144;28;20324;-67
2022/06/13 08:03:32;;;;;;;1138.10;999.90;;;16.40;61.20;;;;;;4994394;28;20293;-67
2022/06/13 08:05:59;;;;;;;1110.37;998.67;;;16.50;60.50;;;;;;4987750;28;20800;-67
2022/06/13 08:08:25;;;;;;;1112.67;999.00;;;16.60;59.30;;;;;;4969498;28;20305;-67
2022/06/13 08:10:53;;;;;;;1123.73;999.90;;;16.80;60.20;;;;;;4986870;28;20650;-67
2022/06/13 08:13:20;;;;;;;1116.20;999.90;;;16.90;59.70;;;;;;4986218;28;20790;-67
2022/06/13 08:15:46;;;;;;;1134.77;999.90;;;16.90;59.20;;;;;;4954288;28;20297;-67
2022/06/13 08:18:13;;;;;;;1138.07;999.90;;;16.90;59.40;;;;;;4970460;28;20344;-67
2022/06/13 08:20:40;;;;;;;1166.47;999.90;;;17.00;58.70;;;;;;4970678;28;20525;-67
2022/06/13 08:23:09;;;;;;;1131.03;999.90;;;17.10;58.00;;;;;;4987228;28;20341;-67
2022/06/13 08:25:36;;;;;;;1162.67;999.90;;;17.20;58.90;;;;;;4964585;28;20294;-67
2022/06/13 08:28:04;;;;;;;1128.17;999.90;;;17.30;57.50;;;;;;4969882;28;20309;-67
2022/06/13 08:30:58;;;;;;;1154.43;999.90;;;17.60;58.50;;;;;;4969332;28;20384;-67
2022/06/13 08:33:24;;;;;;;1153.40;999.90;;;17.70;55.90;;;;;;4966197;28;20381;-67
2022/06/13 08:35:50;;;;;;;1175.93;999.90;;;17.50;57.20;;;;;;4984850;28;20794;-67
2022/06/13 08:38:16;;;;;;;1157.67;999.90;;;17.30;57.70;;;;;;4988532;28;20420;-67
2022/06/13 08:40:45;;;;;;;1103.70;995.87;;;17.20;57.60;;;;;;4973637;28;20038;-67
2022/06/13 08:43:32;;;;;;;1176.73;999.90;;;17.30;57.80;;;;;;4988989;28;20294;-67
2022/06/13 08:46:13;;;;;;;1169.23;999.90;;;17.00;56.70;;;;;;4971294;28;20307;-67
2022/06/13 08:48:44;;;;;;;1194.13;999.90;;;16.80;58.50;;;;;;4984288;28;20727;-67
2022/06/13 08:51:35;;;;;;;1154.87;999.90;;;16.90;58.90;;;;;;4988331;28;20297;-67
2022/06/13 08:54:05;;;;;;;1138.00;999.90;;;17.10;56.50;;;;;;4966832;28;20341;-67
2022/06/13 08:56:36;;;;;;;1148.73;999.90;;;17.10;57.00;;;;;;4967319;28;20293;-67
2022/06/13 08:59:23;;;;;;;1130.43;999.90;;;17.30;57.40;;;;;;4967702;28;20329;-67
2022/06/13 09:02:19;;;;;;;1211.63;999.90;;;17.50;56.00;;;;;;4985000;28;20301;-67
2022/06/13 09:05:05;;;;;;;1124.00;999.90;;;17.40;56.40;;;;;;4969602;28;20308;-67
2022/06/13 09:07:53;;;;;;;1162.40;999.90;;;17.50;56.00;;;;;;4951019;28;20298;-67
2022/06/13 09:10:43;;;;;;;1110.77;999.03;;;17.50;56.20;;;;;;4969559;28;20338;-67
2022/06/13 09:13:18;;;;;;;1197.20;999.90;;;17.60;57.50;;;;;;4971277;28;20334;-67
2022/06/13 09:16:00;;;;;;;1162.37;999.90;;;17.90;57.60;;;;;;4968924;28;20515;-67
2022/06/13 09:18:36;;;;;;;1128.87;999.90;;;17.70;56.10;;;;;;4967076;28;20317;-67
2022/06/13 09:21:14;;;;;;;1136.10;999.90;;;17.40;55.40;;;;;;4969534;28;20316;-67
2022/06/13 09:24:24;;;;;;;1122.67;999.80;;;17.20;56.10;;;;;;4983597;28;20304;-67
2022/06/13 09:27:05;;;;;;;1125.60;999.90;;;17.40;57.60;;;;;;4977092;28;20313;-67
2022/06/13 09:29:50;;;;;;;1134.83;999.90;;;17.50;56.50;;;;;;4984197;28;20364;-67
2022/06/13 09:32:28;;;;;;;1142.13;999.90;;;17.60;57.50;;;;;;4984849;28;20294;-67
2022/06/13 09:35:02;;;;;;;1131.53;999.90;;;17.60;56.30;;;;;;4985902;28;20766;-67
2022/06/13 09:37:40;;;;;;;1163.50;999.90;;;17.80;56.20;;;;;;4983678;28;20400;-67
2022/06/13 09:40:07;;;;;;;1164.43;999.90;;;18.00;57.10;;;;;;4968901;28;20443;-67
2022/06/13 09:42:36;;;;;;;1150.47;999.90;;;18.00;55.80;;;;;;4953588;28;20904;-67
2022/06/13 09:45:10;;;;;;;1110.43;998.07;;;18.20;56.70;;;;;;4968558;28;20312;-67
2022/06/13 09:47:51;;;;;;;1143.13;999.90;;;18.20;56.00;;;;;;4958572;28;20384;-67
2022/06/13 09:50:36;;;;;;;1170.93;999.90;;;18.20;55.30;;;;;;4985988;28;20623;-67
2022/06/13 09:53:11;;;;;;;1149.13;999.90;;;17.80;56.90;;;;;;4968271;28;20289;-67
2022/06/13 09:55:56;;;;;;;1226.33;999.90;;;17.60;58.40;;;;;;4957046;28;20333;-67
2022/06/13 09:58:33;;;;;;;1165.43;999.90;;;17.40;60.40;;;;;;4965832;28;20305;-67
2022/06/13 10:01:30;;;;;;;1157.03;999.90;;;17.20;60.40;;;;;;4982401;28;20130;-67
2022/06/13 10:04:26;;;;;;;1154.97;999.90;;;17.00;60.80;;;;;;4973798;28;20816;-66
2022/06/13 10:07:28;;;;;;;1109.07;998.13;;;17.10;58.10;;;;;;4980440;28;20301;-67
2022/06/13 10:10:25;;;;;;;1091.30;984.43;;;17.00;57.70;;;;;;4961574;28;20059;-67
2022/06/13 10:12:58;;;;;;;1171.33;999.90;;;17.00;59.30;;;;;;4963486;28;20297;-67
2022/06/13 10:15:31;;;;;;;1145.00;999.90;;;17.20;59.10;;;;;;4980986;28;20300;-67
2022/06/13 10:18:12;;;;;;;1196.57;999.90;;;17.20;59.50;;;;;;4962357;28;20301;-67
2022/06/13 10:20:48;;;;;;;1144.53;999.90;;;17.10;60.00;;;;;;4983379;28;20333;-67
2022/06/13 10:23:38;;;;;;;1135.60;999.90;;;17.10;59.60;;;;;;4997990;28;20290;-67
2022/06/13 10:26:19;;;;;;;1151.63;999.90;;;17.20;56.90;;;;;;4985583;28;20329;-67
2022/06/13 10:29:06;;;;;;;1165.87;999.90;;;17.50;57.70;;;;;;4968804;28;20306;-67
2022/06/13 10:31:59;;;;;;;1109.77;997.17;;;17.60;57.20;;;;;;4991403;28;20820;-67
2022/06/13 10:34:46;;;;;;;1144.03;999.90;;;18.00;57.80;;;;;;4985669;28;20798;-67
2022/06/13 10:37:31;;;;;;;1118.90;999.90;;;18.30;57.50;;;;;;4969144;28;20294;-67
2022/06/13 10:40:00;;;;;;;1147.85;999.90;;;18.40;55.10;;;;;;4969514;28;20790;-67
2022/06/13 10:42:29;;;;;;;1109.73;998.87;;;18.10;54.40;;;;;;4984451;28;20074;-67
2022/06/13 10:44:55;;;;;;;1106.27;998.67;;;17.70;55.60;;;;;;4969346;28;20404;-67
2022/06/13 10:47:42;;;;;;;1112.90;999.90;;;17.60;56.80;;;;;;4979016;28;20392;-67
2022/06/13 10:50:29;;;;;;;1127.00;999.90;;;17.60;57.30;;;;;;4982988;28;20491;-67
2022/06/13 10:53:10;;;;;;;1131.80;999.90;;;17.60;58.10;;;;;;4966366;28;20294;-67
2022/06/13 10:55:40;;;;;;;1103.37;997.87;;;17.90;56.30;;;;;;4967342;28;20718;-67
2022/06/13 10:58:14;;;;;;;1168.70;999.90;;;18.00;56.00;;;;;;4967661;28;20294;-66
2022/06/13 11:00:42;;;;;;;1126.37;999.90;;;17.80;55.50;;;;;;4950736;28;20334;-67
2022/06/13 11:03:18;;;;;;;1145.53;999.90;;;17.60;56.60;;;;;;4992154;28;20871;-67
2022/06/13 11:05:56;;;;;;;1161.97;999.90;;;17.60;56.70;;;;;;4960188;28;20674;-66
2022/06/13 11:08:23;;;;;;;1107.40;999.67;;;17.40;57.10;;;;;;4983860;28;20356;-67
2022/06/13 11:11:03;;;;;;;1138.73;999.90;;;17.50;56.70;;;;;;4950278;28;20301;-67
2022/06/13 11:13:34;;;;;;;1130.00;999.90;;;17.80;56.10;;;;;;4971020;28;20290;-67
2022/06/13 11:24:40;;;;;;;1120.70;999.90;;;18.80;54.00;;;;;;4991882;28;20300;-67
2022/06/13 11:30:28;;;;;;;1111.25;999.90;;;19.20;51.30;;;;;;4988836;28;20318;-67
2022/06/13 11:33:12;;;;;;;1137.70;999.90;;;19.30;51.30;;;;;;4976529;28;20065;-67
2022/06/13 11:36:10;;;;;;;1111.77;999.90;;;19.30;52.10;;;;;;4988282;28;20484;-67
2022/06/13 11:38:49;;;;;;;1137.27;999.90;;;19.40;51.80;;;;;;4987635;28;20308;-67
2022/06/13 11:41:36;;;;;;;1135.10;999.90;;;19.30;52.40;;;;;;4969557;28;20786;-67
2022/06/13 11:44:06;;;;;;;1141.97;999.90;;;19.00;52.80;;;;;;4969841;28;20383;-67
2022/06/13 11:46:34;;;;;;;1143.07;999.90;;;19.00;54.70;;;;;;4968664;28;20405;-67
2022/06/13 11:49:14;;;;;;;1119.40;999.90;;;19.20;54.00;;;;;;4985430;28;20317;-67
2022/06/13 11:51:58;;;;;;;1141.87;999.90;;;19.40;54.10;;;;;;4969460;28;20842;-67
2022/06/13 11:54:34;;;;;;;1140.23;999.90;;;19.00;52.80;;;;;;4986055;28;20294;-67
2022/06/13 11:57:17;;;;;;;1153.93;999.90;;;18.50;54.50;;;;;;4982842;28;20377;-67
2022/06/13 11:59:49;;;;;;;1182.10;999.90;;;18.20;55.00;;;;;;4970374;28;20306;-67
2022/06/13 12:02:25;;;;;;;1120.83;999.90;;;18.20;55.10;;;;;;4970305;28;20791;-67
2022/06/13 12:04:55;;;;;;;1169.90;999.90;;;18.50;55.30;;;;;;4973145;28;20321;-67
2022/06/13 12:07:27;;;;;;;1136.13;999.90;;;18.70;55.50;;;;;;4969771;28;20389;-67
2022/06/13 12:09:56;;;;;;;1103.37;996.60;;;18.70;56.10;;;;;;4972364;28;20830;-67
2022/06/13 12:12:23;;;;;;;1120.37;999.90;;;18.80;55.00;;;;;;4986494;28;20328;-67
2022/06/13 12:14:48;;;;;;;1129.83;999.90;;;18.80;54.50;;;;;;4972852;28;20604;-67
2022/06/13 12:17:38;;;;;;;1154.87;999.90;;;18.70;54.80;;;;;;4970805;28;20308;-67
2022/06/13 12:20:11;;;;;;;1106.43;999.40;;;18.50;56.30;;;;;;4954760;28;20086;-67
2022/06/13 12:22:55;;;;;;;1113.60;999.90;;;18.50;54.90;;;;;;4972525;28;20384;-67
2022/06/13 12:25:34;;;;;;;1274.90;999.90;;;18.40;54.20;;;;;;4969625;28;20372;-67
2022/06/13 12:28:14;;;;;;;1081.30;985.07;;;18.10;54.10;;;;;;4974683;28;20042;-67
2022/06/13 12:31:08;;;;;;;1108.43;998.90;;;17.90;54.80;;;;;;4986678;28;20312;-67
2022/06/13 12:33:45;;;;;;;1134.93;999.90;;;18.10;55.20;;;;;;4987663;28;20721;-67
2022/06/13 12:36:35;;;;;;;1115.20;999.90;;;18.40;54.60;;;;;;4976280;28;20290;-67
2022/06/13 12:39:19;;;;;;;1119.47;999.90;;;18.70;52.90;;;;;;4970570;28;20300;-67
2022/06/13 12:41:51;;;;;;;1118.50;999.90;;;19.00;53.00;;;;;;4968048;28;20301;-67
2022/06/13 12:44:30;;;;;;;1083.43;985.03;;;18.90;54.20;;;;;;4985228;28;20305;-67
2022/06/13 12:47:17;;;;;;;1074.37;977.57;;;18.80;53.30;;;;;;4968276;28;20298;-67
2022/06/13 12:50:20;;;;;;;1097.70;996.23;;;18.70;53.20;;;;;;4952604;28;20385;-67
2022/06/13 12:53:00;;;;;;;1126.07;999.90;;;18.50;53.70;;;;;;5002666;28;20297;-67
2022/06/13 12:55:54;;;;;;;1143.00;999.90;;;18.30;55.00;;;;;;4987399;28;20289;-67
2022/06/13 12:58:26;;;;;;;1105.17;999.90;;;18.40;54.60;;;;;;4966520;28;20301;-67
2022/06/13 13:01:14;;;;;;;1123.13;999.90;;;18.70;54.40;;;;;;4978536;28;20312;-67